sensor_id;sensor_type;location;lat;lon;timestamp;temperature;humidity
45115;DHT22;30877;43.706;10.780;2023-10-08T00:00:49;20.60;96.70
45115;DHT22;30877;43.706;10.780;2023-10-08T00:03:19;20.60;96.70
45115;DHT22;30877;43.706;10.780;2023-10-08T00:05:50;20.60;96.70
45115;DHT22;30877;43.706;10.780;2023-10-08T00:08:19;20.60;96.70
45115;DHT22;30877;43.706;10.780;2023-10-08T00:10:49;20.50;96.70
45115;DHT22;30877;43.706;10.780;2023-10-08T00:13:19;20.50;96.70
45115;DHT22;30877;43.706;10.780;2023-10-08T00:15:47;20.60;96.70
45115;DHT22;30877;43.706;10.780;2023-10-08T00:18:24;20.60;96.70
45115;DHT22;30877;43.706;10.780;2023-10-08T00:20:52;20.60;96.70
45115;DHT22;30877;43.706;10.780;2023-10-08T00:23:44;20.60;96.70
45115;DHT22;30877;43.706;10.780;2023-10-08T00:26:23;20.70;96.70
45115;DHT22;30877;43.706;10.780;2023-10-08T00:29:03;20.70;96.70
45115;DHT22;30877;43.706;10.780;2023-10-08T00:31:43;20.80;96.70
45115;DHT22;30877;43.706;10.780;2023-10-08T00:34:19;20.80;96.70
45115;DHT22;30877;43.706;10.780;2023-10-08T00:36:48;20.80;96.70
45115;DHT22;30877;43.706;10.780;2023-10-08T00:39:17;20.80;96.70
45115;DHT22;30877;43.706;10.780;2023-10-08T00:41:53;20.80;96.70
45115;DHT22;30877;43.706;10.780;2023-10-08T00:44:28;20.70;96.70
45115;DHT22;30877;43.706;10.780;2023-10-08T00:47:04;20.80;96.70
45115;DHT22;30877;43.706;10.780;2023-10-08T00:49:34;20.90;96.70
45115;DHT22;30877;43.706;10.780;2023-10-08T00:52:12;20.90;96.70
45115;DHT22;30877;43.706;10.780;2023-10-08T00:54:42;20.90;96.70
45115;DHT22;30877;43.706;10.780;2023-10-08T00:57:22;20.80;96.70
45115;DHT22;30877;43.706;10.780;2023-10-08T00:59:51;20.90;96.70
45115;DHT22;30877;43.706;10.780;2023-10-08T01:02:26;20.90;96.70
45115;DHT22;30877;43.706;10.780;2023-10-08T01:05:16;20.80;96.70
45115;DHT22;30877;43.706;10.780;2023-10-08T01:07:54;20.70;96.70
45115;DHT22;30877;43.706;10.780;2023-10-08T01:10:24;20.80;96.70
45115;DHT22;30877;43.706;10.780;2023-10-08T01:12:52;20.70;96.70
45115;DHT22;30877;43.706;10.780;2023-10-08T01:15:44;20.70;96.70
45115;DHT22;30877;43.706;10.780;2023-10-08T01:18:13;20.60;96.70
45115;DHT22;30877;43.706;10.780;2023-10-08T01:20:48;20.70;96.70
45115;DHT22;30877;43.706;10.780;2023-10-08T01:23:22;20.80;96.70
45115;DHT22;30877;43.706;10.780;2023-10-08T01:25:55;20.80;96.70
45115;DHT22;30877;43.706;10.780;2023-10-08T01:28:39;20.80;96.70
45115;DHT22;30877;43.706;10.780;2023-10-08T01:31:08;20.70;96.70
45115;DHT22;30877;43.706;10.780;2023-10-08T01:33:40;20.70;96.70
45115;DHT22;30877;43.706;10.780;2023-10-08T01:36:18;20.80;96.70
45115;DHT22;30877;43.706;10.780;2023-10-08T01:38:48;20.80;96.70
45115;DHT22;30877;43.706;10.780;2023-10-08T01:41:17;20.80;96.70
45115;DHT22;30877;43.706;10.780;2023-10-08T01:43:49;20.80;96.70
45115;DHT22;30877;43.706;10.780;2023-10-08T01:46:20;20.80;96.70
45115;DHT22;30877;43.706;10.780;2023-10-08T01:48:50;20.80;96.70
45115;DHT22;30877;43.706;10.780;2023-10-08T01:51:24;20.70;96.70
45115;DHT22;30877;43.706;10.780;2023-10-08T01:54:06;20.70;96.70
45115;DHT22;30877;43.706;10.780;2023-10-08T01:56:40;20.70;96.70
45115;DHT22;30877;43.706;10.780;2023-10-08T01:59:12;20.70;96.70
45115;DHT22;30877;43.706;10.780;2023-10-08T02:01:42;20.70;96.70
45115;DHT22;30877;43.706;10.780;2023-10-08T02:04:11;20.70;96.70
45115;DHT22;30877;43.706;10.780;2023-10-08T02:06:41;20.70;96.70
45115;DHT22;30877;43.706;10.780;2023-10-08T02:09:10;20.70;96.70
45115;DHT22;30877;43.706;10.780;2023-10-08T02:11:45;20.70;96.70
45115;DHT22;30877;43.706;10.780;2023-10-08T02:14:14;20.70;96.70
45115;DHT22;30877;43.706;10.780;2023-10-08T02:16:43;20.70;96.70
45115;DHT22;30877;43.706;10.780;2023-10-08T02:19:12;20.70;96.70
45115;DHT22;30877;43.706;10.780;2023-10-08T02:21:41;20.70;96.70
45115;DHT22;30877;43.706;10.780;2023-10-08T02:24:12;20.70;96.70
45115;DHT22;30877;43.706;10.780;2023-10-08T02:26:40;20.70;96.70
45115;DHT22;30877;43.706;10.780;2023-10-08T02:29:10;20.70;96.70
45115;DHT22;30877;43.706;10.780;2023-10-08T02:31:39;20.70;96.70
45115;DHT22;30877;43.706;10.780;2023-10-08T02:34:08;20.70;96.70
45115;DHT22;30877;43.706;10.780;2023-10-08T02:36:37;20.70;96.70
45115;DHT22;30877;43.706;10.780;2023-10-08T02:39:06;20.70;96.70
45115;DHT22;30877;43.706;10.780;2023-10-08T02:41:55;20.80;96.70
45115;DHT22;30877;43.706;10.780;2023-10-08T02:44:27;20.80;96.70
45115;DHT22;30877;43.706;10.780;2023-10-08T02:46:56;20.80;96.70
45115;DHT22;30877;43.706;10.780;2023-10-08T02:49:24;20.80;96.70
45115;DHT22;30877;43.706;10.780;2023-10-08T02:51:53;20.80;96.70
45115;DHT22;30877;43.706;10.780;2023-10-08T02:54:23;20.80;96.70
45115;DHT22;30877;43.706;10.780;2023-10-08T02:57:02;20.80;96.70
45115;DHT22;30877;43.706;10.780;2023-10-08T02:59:38;20.80;96.70
45115;DHT22;30877;43.706;10.780;2023-10-08T03:02:09;20.70;96.70
45115;DHT22;30877;43.706;10.780;2023-10-08T03:04:43;20.70;96.70
45115;DHT22;30877;43.706;10.780;2023-10-08T03:07:14;20.70;96.70
45115;DHT22;30877;43.706;10.780;2023-10-08T03:10:01;20.70;96.70
45115;DHT22;30877;43.706;10.780;2023-10-08T03:12:36;20.70;96.70
45115;DHT22;30877;43.706;10.780;2023-10-08T03:15:05;20.70;96.70
45115;DHT22;30877;43.706;10.780;2023-10-08T03:17:42;20.80;96.70
45115;DHT22;30877;43.706;10.780;2023-10-08T03:20:17;20.80;96.70
45115;DHT22;30877;43.706;10.780;2023-10-08T03:23:04;20.80;96.70
45115;DHT22;30877;43.706;10.780;2023-10-08T03:25:39;20.80;96.70
45115;DHT22;30877;43.706;10.780;2023-10-08T03:28:12;20.80;96.70
45115;DHT22;30877;43.706;10.780;2023-10-08T03:30:41;20.90;96.70
45115;DHT22;30877;43.706;10.780;2023-10-08T03:33:19;20.90;96.70
45115;DHT22;30877;43.706;10.780;2023-10-08T03:35:52;20.80;96.70
45115;DHT22;30877;43.706;10.780;2023-10-08T03:38:21;20.80;96.70
45115;DHT22;30877;43.706;10.780;2023-10-08T03:40:56;20.80;96.70
45115;DHT22;30877;43.706;10.780;2023-10-08T03:43:38;20.90;96.70
45115;DHT22;30877;43.706;10.780;2023-10-08T03:46:30;20.80;96.70
45115;DHT22;30877;43.706;10.780;2023-10-08T03:48:58;20.90;96.70
45115;DHT22;30877;43.706;10.780;2023-10-08T03:51:35;20.90;96.70
45115;DHT22;30877;43.706;10.780;2023-10-08T03:54:07;20.80;96.70
45115;DHT22;30877;43.706;10.780;2023-10-08T03:56:46;20.80;96.70
45115;DHT22;30877;43.706;10.780;2023-10-08T03:59:18;20.80;96.70
45115;DHT22;30877;43.706;10.780;2023-10-08T04:01:59;20.80;96.70
45115;DHT22;30877;43.706;10.780;2023-10-08T04:04:52;20.70;96.70
45115;DHT22;30877;43.706;10.780;2023-10-08T04:07:40;20.70;96.70
45115;DHT22;30877;43.706;10.780;2023-10-08T04:10:52;20.70;96.70
45115;DHT22;30877;43.706;10.780;2023-10-08T04:13:36;20.70;96.70
45115;DHT22;30877;43.706;10.780;2023-10-08T04:16:13;20.70;96.70
45115;DHT22;30877;43.706;10.780;2023-10-08T04:18:47;20.70;96.70
45115;DHT22;30877;43.706;10.780;2023-10-08T04:21:18;20.70;96.70
45115;DHT22;30877;43.706;10.780;2023-10-08T04:23:48;20.70;96.70
45115;DHT22;30877;43.706;10.780;2023-10-08T04:26:19;20.70;96.70
45115;DHT22;30877;43.706;10.780;2023-10-08T04:28:54;20.70;96.70
45115;DHT22;30877;43.706;10.780;2023-10-08T04:31:26;20.70;96.70
45115;DHT22;30877;43.706;10.780;2023-10-08T04:34:06;20.70;96.70
45115;DHT22;30877;43.706;10.780;2023-10-08T04:36:43;20.70;96.70
45115;DHT22;30877;43.706;10.780;2023-10-08T04:39:14;20.70;96.70
45115;DHT22;30877;43.706;10.780;2023-10-08T04:41:49;20.70;96.70
45115;DHT22;30877;43.706;10.780;2023-10-08T04:44:22;20.70;96.70
45115;DHT22;30877;43.706;10.780;2023-10-08T04:46:55;20.80;96.70
45115;DHT22;30877;43.706;10.780;2023-10-08T04:49:23;20.80;96.70
45115;DHT22;30877;43.706;10.780;2023-10-08T04:51:56;20.80;96.70
45115;DHT22;30877;43.706;10.780;2023-10-08T04:54:25;20.80;96.70
45115;DHT22;30877;43.706;10.780;2023-10-08T04:56:59;20.80;96.70
45115;DHT22;30877;43.706;10.780;2023-10-08T04:59:28;20.80;96.70
45115;DHT22;30877;43.706;10.780;2023-10-08T05:02:05;20.70;96.70
45115;DHT22;30877;43.706;10.780;2023-10-08T05:04:50;20.70;96.70
45115;DHT22;30877;43.706;10.780;2023-10-08T05:07:25;20.70;96.70
45115;DHT22;30877;43.706;10.780;2023-10-08T05:10:12;20.70;96.70
45115;DHT22;30877;43.706;10.780;2023-10-08T05:13:04;20.70;96.70
45115;DHT22;30877;43.706;10.780;2023-10-08T05:15:35;20.60;96.70
45115;DHT22;30877;43.706;10.780;2023-10-08T05:18:27;20.60;96.70
45115;DHT22;30877;43.706;10.780;2023-10-08T05:21:16;20.60;96.70
45115;DHT22;30877;43.706;10.780;2023-10-08T05:23:53;20.70;96.70
45115;DHT22;30877;43.706;10.780;2023-10-08T05:26:39;20.70;96.70
45115;DHT22;30877;43.706;10.780;2023-10-08T05:29:12;20.70;96.70
45115;DHT22;30877;43.706;10.780;2023-10-08T05:31:59;20.70;96.70
45115;DHT22;30877;43.706;10.780;2023-10-08T05:34:47;20.60;96.70
45115;DHT22;30877;43.706;10.780;2023-10-08T05:37:35;20.70;96.70
45115;DHT22;30877;43.706;10.780;2023-10-08T05:40:10;20.70;96.70
45115;DHT22;30877;43.706;10.780;2023-10-08T05:43:01;20.70;96.70
45115;DHT22;30877;43.706;10.780;2023-10-08T05:45:41;20.70;96.70
45115;DHT22;30877;43.706;10.780;2023-10-08T05:48:20;20.70;96.70
45115;DHT22;30877;43.706;10.780;2023-10-08T05:51:06;20.70;96.70
45115;DHT22;30877;43.706;10.780;2023-10-08T05:53:41;20.70;96.70
45115;DHT22;30877;43.706;10.780;2023-10-08T05:56:12;20.80;96.70
45115;DHT22;30877;43.706;10.780;2023-10-08T05:58:57;20.80;96.70
45115;DHT22;30877;43.706;10.780;2023-10-08T06:01:42;20.80;96.70
45115;DHT22;30877;43.706;10.780;2023-10-08T06:04:14;20.80;96.70
45115;DHT22;30877;43.706;10.780;2023-10-08T06:07:02;20.80;96.70
45115;DHT22;30877;43.706;10.780;2023-10-08T06:09:51;20.80;96.70
45115;DHT22;30877;43.706;10.780;2023-10-08T06:12:30;20.80;96.70
45115;DHT22;30877;43.706;10.780;2023-10-08T06:15:08;20.80;96.70
45115;DHT22;30877;43.706;10.780;2023-10-08T06:17:36;20.80;96.70
45115;DHT22;30877;43.706;10.780;2023-10-08T06:20:26;20.90;96.70
45115;DHT22;30877;43.706;10.780;2023-10-08T06:22:57;20.90;96.70
45115;DHT22;30877;43.706;10.780;2023-10-08T06:25:29;20.90;96.70
45115;DHT22;30877;43.706;10.780;2023-10-08T06:27:58;20.90;96.70
45115;DHT22;30877;43.706;10.780;2023-10-08T06:30:26;20.90;96.70
45115;DHT22;30877;43.706;10.780;2023-10-08T06:32:57;20.90;96.70
45115;DHT22;30877;43.706;10.780;2023-10-08T06:35:25;20.90;96.70
45115;DHT22;30877;43.706;10.780;2023-10-08T06:37:57;20.90;96.70
45115;DHT22;30877;43.706;10.780;2023-10-08T06:40:27;20.90;96.70
45115;DHT22;30877;43.706;10.780;2023-10-08T06:43:05;20.90;96.70
45115;DHT22;30877;43.706;10.780;2023-10-08T06:45:43;20.90;96.70
45115;DHT22;30877;43.706;10.780;2023-10-08T06:48:13;20.90;96.70
45115;DHT22;30877;43.706;10.780;2023-10-08T06:50:52;21.00;96.70
45115;DHT22;30877;43.706;10.780;2023-10-08T06:53:37;21.00;96.70
45115;DHT22;30877;43.706;10.780;2023-10-08T06:56:06;21.00;96.70
45115;DHT22;30877;43.706;10.780;2023-10-08T06:58:37;21.10;96.70
45115;DHT22;30877;43.706;10.780;2023-10-08T07:01:05;21.00;96.70
45115;DHT22;30877;43.706;10.780;2023-10-08T07:03:36;21.10;96.70
45115;DHT22;30877;43.706;10.780;2023-10-08T07:06:08;21.10;96.70
45115;DHT22;30877;43.706;10.780;2023-10-08T07:08:55;21.10;96.70
45115;DHT22;30877;43.706;10.780;2023-10-08T07:11:24;21.20;96.70
45115;DHT22;30877;43.706;10.780;2023-10-08T07:13:54;21.20;96.70
45115;DHT22;30877;43.706;10.780;2023-10-08T07:16:23;21.30;96.70
45115;DHT22;30877;43.706;10.780;2023-10-08T07:18:51;21.30;96.70
45115;DHT22;30877;43.706;10.780;2023-10-08T07:21:20;21.30;96.70
45115;DHT22;30877;43.706;10.780;2023-10-08T07:23:58;21.30;96.70
45115;DHT22;30877;43.706;10.780;2023-10-08T07:26:27;21.30;96.70
45115;DHT22;30877;43.706;10.780;2023-10-08T07:29:05;21.40;96.70
45115;DHT22;30877;43.706;10.780;2023-10-08T07:31:36;21.40;96.70
45115;DHT22;30877;43.706;10.780;2023-10-08T07:34:05;21.40;96.70
45115;DHT22;30877;43.706;10.780;2023-10-08T07:36:52;21.30;96.70
45115;DHT22;30877;43.706;10.780;2023-10-08T07:39:22;21.40;96.70
45115;DHT22;30877;43.706;10.780;2023-10-08T07:42:13;21.40;96.70
45115;DHT22;30877;43.706;10.780;2023-10-08T07:44:42;21.40;96.70
45115;DHT22;30877;43.706;10.780;2023-10-08T07:47:10;21.40;96.70
45115;DHT22;30877;43.706;10.780;2023-10-08T07:49:40;21.50;96.70
45115;DHT22;30877;43.706;10.780;2023-10-08T07:52:11;21.50;96.70
45115;DHT22;30877;43.706;10.780;2023-10-08T07:54:45;21.50;96.70
45115;DHT22;30877;43.706;10.780;2023-10-08T07:57:14;21.60;96.70
45115;DHT22;30877;43.706;10.780;2023-10-08T07:59:54;21.60;96.70
45115;DHT22;30877;43.706;10.780;2023-10-08T08:02:44;21.60;96.70
45115;DHT22;30877;43.706;10.780;2023-10-08T08:05:12;21.70;96.70
45115;DHT22;30877;43.706;10.780;2023-10-08T08:07:45;21.80;96.70
45115;DHT22;30877;43.706;10.780;2023-10-08T08:10:25;21.80;96.70
45115;DHT22;30877;43.706;10.780;2023-10-08T08:12:53;21.80;96.70
45115;DHT22;30877;43.706;10.780;2023-10-08T08:15:24;21.80;96.70
45115;DHT22;30877;43.706;10.780;2023-10-08T08:17:54;21.90;96.70
45115;DHT22;30877;43.706;10.780;2023-10-08T08:20:23;22.10;96.70
45115;DHT22;30877;43.706;10.780;2023-10-08T08:23:03;22.20;96.70
45115;DHT22;30877;43.706;10.780;2023-10-08T08:25:40;22.20;96.70
45115;DHT22;30877;43.706;10.780;2023-10-08T08:28:23;22.20;96.70
45115;DHT22;30877;43.706;10.780;2023-10-08T08:30:52;22.30;96.70
45115;DHT22;30877;43.706;10.780;2023-10-08T08:33:20;22.30;96.70
45115;DHT22;30877;43.706;10.780;2023-10-08T08:35:58;22.30;96.70
45115;DHT22;30877;43.706;10.780;2023-10-08T08:38:28;22.20;96.70
45115;DHT22;30877;43.706;10.780;2023-10-08T08:41:05;22.20;96.70
45115;DHT22;30877;43.706;10.780;2023-10-08T08:43:40;22.20;96.70
45115;DHT22;30877;43.706;10.780;2023-10-08T08:46:12;22.30;96.70
45115;DHT22;30877;43.706;10.780;2023-10-08T08:48:40;22.30;96.70
45115;DHT22;30877;43.706;10.780;2023-10-08T08:51:09;22.30;96.70
45115;DHT22;30877;43.706;10.780;2023-10-08T08:53:37;22.40;96.70
45115;DHT22;30877;43.706;10.780;2023-10-08T08:56:08;22.50;96.70
45115;DHT22;30877;43.706;10.780;2023-10-08T08:58:40;22.70;96.70
45115;DHT22;30877;43.706;10.780;2023-10-08T09:01:12;22.80;96.70
45115;DHT22;30877;43.706;10.780;2023-10-08T09:03:42;22.90;96.70
45115;DHT22;30877;43.706;10.780;2023-10-08T09:06:10;23.00;96.70
45115;DHT22;30877;43.706;10.780;2023-10-08T09:08:39;23.00;96.70
45115;DHT22;30877;43.706;10.780;2023-10-08T09:11:19;23.00;96.70
45115;DHT22;30877;43.706;10.780;2023-10-08T09:13:47;23.10;96.70
45115;DHT22;30877;43.706;10.780;2023-10-08T09:16:16;23.20;96.70
45115;DHT22;30877;43.706;10.780;2023-10-08T09:18:44;23.30;96.70
45115;DHT22;30877;43.706;10.780;2023-10-08T09:21:16;23.30;96.70
45115;DHT22;30877;43.706;10.780;2023-10-08T09:23:50;23.40;96.70
45115;DHT22;30877;43.706;10.780;2023-10-08T09:26:22;23.40;96.70
45115;DHT22;30877;43.706;10.780;2023-10-08T09:28:50;23.40;96.70
45115;DHT22;30877;43.706;10.780;2023-10-08T09:31:23;23.40;96.70
45115;DHT22;30877;43.706;10.780;2023-10-08T09:33:55;23.70;96.70
45115;DHT22;30877;43.706;10.780;2023-10-08T09:36:23;23.90;96.70
45115;DHT22;30877;43.706;10.780;2023-10-08T09:39:03;24.00;96.70
45115;DHT22;30877;43.706;10.780;2023-10-08T09:41:36;24.10;96.70
45115;DHT22;30877;43.706;10.780;2023-10-08T09:44:06;24.10;96.70
45115;DHT22;30877;43.706;10.780;2023-10-08T09:46:38;24.10;96.70
45115;DHT22;30877;43.706;10.780;2023-10-08T09:49:09;23.90;96.70
45115;DHT22;30877;43.706;10.780;2023-10-08T09:51:40;23.90;96.70
45115;DHT22;30877;43.706;10.780;2023-10-08T09:54:11;23.80;96.70
45115;DHT22;30877;43.706;10.780;2023-10-08T09:56:43;23.80;96.70
45115;DHT22;30877;43.706;10.780;2023-10-08T09:59:13;23.80;96.70
45115;DHT22;30877;43.706;10.780;2023-10-08T10:01:43;23.90;96.70
45115;DHT22;30877;43.706;10.780;2023-10-08T10:04:13;24.00;96.70
45115;DHT22;30877;43.706;10.780;2023-10-08T10:06:52;24.10;96.70
45115;DHT22;30877;43.706;10.780;2023-10-08T10:09:24;24.00;96.70
45115;DHT22;30877;43.706;10.780;2023-10-08T10:11:54;24.10;96.70
45115;DHT22;30877;43.706;10.780;2023-10-08T10:14:23;24.20;96.70
45115;DHT22;30877;43.706;10.780;2023-10-08T10:17:09;24.30;96.70
45115;DHT22;30877;43.706;10.780;2023-10-08T10:19:45;24.50;96.70
45115;DHT22;30877;43.706;10.780;2023-10-08T10:22:28;24.60;96.70
45115;DHT22;30877;43.706;10.780;2023-10-08T10:24:59;24.60;96.70
45115;DHT22;30877;43.706;10.780;2023-10-08T10:27:34;24.50;96.70
45115;DHT22;30877;43.706;10.780;2023-10-08T10:30:03;24.60;96.70
45115;DHT22;30877;43.706;10.780;2023-10-08T10:32:36;24.80;96.70
45115;DHT22;30877;43.706;10.780;2023-10-08T10:35:05;24.90;96.70
45115;DHT22;30877;43.706;10.780;2023-10-08T10:37:33;25.00;96.70
45115;DHT22;30877;43.706;10.780;2023-10-08T10:40:20;25.10;96.70
45115;DHT22;30877;43.706;10.780;2023-10-08T10:42:58;25.20;96.70
45115;DHT22;30877;43.706;10.780;2023-10-08T10:45:29;25.20;96.70
45115;DHT22;30877;43.706;10.780;2023-10-08T10:48:23;25.20;96.70
45115;DHT22;30877;43.706;10.780;2023-10-08T10:50:54;25.30;96.70
45115;DHT22;30877;43.706;10.780;2023-10-08T10:53:36;25.40;96.70
45115;DHT22;30877;43.706;10.780;2023-10-08T10:56:13;25.40;96.70
45115;DHT22;30877;43.706;10.780;2023-10-08T10:58:49;25.50;96.70
45115;DHT22;30877;43.706;10.780;2023-10-08T11:01:26;25.50;96.70
45115;DHT22;30877;43.706;10.780;2023-10-08T11:03:57;25.60;96.70
45115;DHT22;30877;43.706;10.780;2023-10-08T11:06:26;25.70;96.70
45115;DHT22;30877;43.706;10.780;2023-10-08T11:08:56;25.80;96.70
45115;DHT22;30877;43.706;10.780;2023-10-08T11:11:26;25.80;96.70
45115;DHT22;30877;43.706;10.780;2023-10-08T11:13:59;25.90;96.70
45115;DHT22;30877;43.706;10.780;2023-10-08T11:16:29;26.10;96.70
45115;DHT22;30877;43.706;10.780;2023-10-08T11:18:59;26.20;96.70
45115;DHT22;30877;43.706;10.780;2023-10-08T11:21:48;26.30;96.70
45115;DHT22;30877;43.706;10.780;2023-10-08T11:24:28;26.40;96.70
45115;DHT22;30877;43.706;10.780;2023-10-08T11:26:56;26.40;96.70
45115;DHT22;30877;43.706;10.780;2023-10-08T11:29:48;26.50;96.70
45115;DHT22;30877;43.706;10.780;2023-10-08T11:32:16;26.70;96.70
45115;DHT22;30877;43.706;10.780;2023-10-08T11:34:55;26.80;96.70
45115;DHT22;30877;43.706;10.780;2023-10-08T11:37:30;26.90;96.70
45115;DHT22;30877;43.706;10.780;2023-10-08T11:40:02;26.90;96.70
45115;DHT22;30877;43.706;10.780;2023-10-08T11:42:50;27.10;96.70
45115;DHT22;30877;43.706;10.780;2023-10-08T11:45:20;27.20;96.70
45115;DHT22;30877;43.706;10.780;2023-10-08T11:47:52;27.40;96.70
45115;DHT22;30877;43.706;10.780;2023-10-08T11:50:25;27.40;96.70
45115;DHT22;30877;43.706;10.780;2023-10-08T11:52:59;27.40;96.70
45115;DHT22;30877;43.706;10.780;2023-10-08T11:55:34;27.60;96.70
45115;DHT22;30877;43.706;10.780;2023-10-08T11:58:05;27.70;96.70
45115;DHT22;30877;43.706;10.780;2023-10-08T12:00:41;27.60;96.70
45115;DHT22;30877;43.706;10.780;2023-10-08T12:03:15;27.60;96.70
45115;DHT22;30877;43.706;10.780;2023-10-08T12:05:48;27.70;96.70
45115;DHT22;30877;43.706;10.780;2023-10-08T12:08:19;27.80;96.70
45115;DHT22;30877;43.706;10.780;2023-10-08T12:10:50;27.90;96.70
45115;DHT22;30877;43.706;10.780;2023-10-08T12:13:23;28.00;96.70
45115;DHT22;30877;43.706;10.780;2023-10-08T12:15:58;28.00;96.70
45115;DHT22;30877;43.706;10.780;2023-10-08T12:18:40;28.10;96.70
45115;DHT22;30877;43.706;10.780;2023-10-08T12:21:11;28.10;96.70
45115;DHT22;30877;43.706;10.780;2023-10-08T12:23:43;28.10;96.70
45115;DHT22;30877;43.706;10.780;2023-10-08T12:26:14;28.20;96.70
45115;DHT22;30877;43.706;10.780;2023-10-08T12:28:48;28.30;96.70
45115;DHT22;30877;43.706;10.780;2023-10-08T12:31:21;28.10;96.70
45115;DHT22;30877;43.706;10.780;2023-10-08T12:33:53;28.20;96.70
45115;DHT22;30877;43.706;10.780;2023-10-08T12:36:30;28.30;96.70
45115;DHT22;30877;43.706;10.780;2023-10-08T12:39:06;28.40;96.70
45115;DHT22;30877;43.706;10.780;2023-10-08T12:41:47;28.50;96.70
45115;DHT22;30877;43.706;10.780;2023-10-08T12:44:19;28.70;96.70
45115;DHT22;30877;43.706;10.780;2023-10-08T12:46:50;28.80;96.70
45115;DHT22;30877;43.706;10.780;2023-10-08T12:49:20;28.70;96.70
45115;DHT22;30877;43.706;10.780;2023-10-08T12:51:52;28.80;96.70
45115;DHT22;30877;43.706;10.780;2023-10-08T12:54:21;28.80;96.70
45115;DHT22;30877;43.706;10.780;2023-10-08T12:56:53;28.90;96.70
45115;DHT22;30877;43.706;10.780;2023-10-08T12:59:25;28.90;96.70
45115;DHT22;30877;43.706;10.780;2023-10-08T13:01:59;29.00;96.70
45115;DHT22;30877;43.706;10.780;2023-10-08T13:04:36;29.00;96.70
45115;DHT22;30877;43.706;10.780;2023-10-08T13:07:10;29.10;96.70
45115;DHT22;30877;43.706;10.780;2023-10-08T13:09:41;29.10;96.70
45115;DHT22;30877;43.706;10.780;2023-10-08T13:12:12;29.10;96.70
45115;DHT22;30877;43.706;10.780;2023-10-08T13:14:43;29.10;96.70
45115;DHT22;30877;43.706;10.780;2023-10-08T13:17:15;29.20;96.70
45115;DHT22;30877;43.706;10.780;2023-10-08T13:19:46;29.30;96.70
45115;DHT22;30877;43.706;10.780;2023-10-08T13:22:16;29.40;96.70
45115;DHT22;30877;43.706;10.780;2023-10-08T13:24:50;29.50;96.70
45115;DHT22;30877;43.706;10.780;2023-10-08T13:27:19;29.50;96.70
45115;DHT22;30877;43.706;10.780;2023-10-08T13:29:50;29.40;96.70
45115;DHT22;30877;43.706;10.780;2023-10-08T13:32:24;29.40;96.70
45115;DHT22;30877;43.706;10.780;2023-10-08T13:34:55;29.50;96.70
45115;DHT22;30877;43.706;10.780;2023-10-08T13:37:24;29.70;96.70
45115;DHT22;30877;43.706;10.780;2023-10-08T13:39:54;29.70;96.70
45115;DHT22;30877;43.706;10.780;2023-10-08T13:42:23;29.70;96.70
45115;DHT22;30877;43.706;10.780;2023-10-08T13:44:52;29.70;96.70
45115;DHT22;30877;43.706;10.780;2023-10-08T13:47:28;29.60;96.70
45115;DHT22;30877;43.706;10.780;2023-10-08T13:49:57;29.40;96.70
45115;DHT22;30877;43.706;10.780;2023-10-08T13:52:26;29.40;96.70
45115;DHT22;30877;43.706;10.780;2023-10-08T13:54:54;29.50;96.70
45115;DHT22;30877;43.706;10.780;2023-10-08T13:57:22;29.40;96.70
45115;DHT22;30877;43.706;10.780;2023-10-08T13:59:54;29.40;96.70
45115;DHT22;30877;43.706;10.780;2023-10-08T14:02:24;29.40;96.70
45115;DHT22;30877;43.706;10.780;2023-10-08T14:04:54;29.50;96.70
45115;DHT22;30877;43.706;10.780;2023-10-08T14:07:22;29.60;96.70
45115;DHT22;30877;43.706;10.780;2023-10-08T14:09:54;29.60;96.70
45115;DHT22;30877;43.706;10.780;2023-10-08T14:12:22;29.70;96.70
45115;DHT22;30877;43.706;10.780;2023-10-08T14:14:53;29.80;96.70
45115;DHT22;30877;43.706;10.780;2023-10-08T14:17:22;29.70;96.70
45115;DHT22;30877;43.706;10.780;2023-10-08T14:20:10;29.80;96.70
45115;DHT22;30877;43.706;10.780;2023-10-08T14:22:41;29.90;96.70
45115;DHT22;30877;43.706;10.780;2023-10-08T14:25:09;29.90;96.70
45115;DHT22;30877;43.706;10.780;2023-10-08T14:27:41;29.90;96.70
45115;DHT22;30877;43.706;10.780;2023-10-08T14:30:20;29.90;96.70
45115;DHT22;30877;43.706;10.780;2023-10-08T14:32:52;29.90;96.70
45115;DHT22;30877;43.706;10.780;2023-10-08T14:35:21;30.20;96.70
45115;DHT22;30877;43.706;10.780;2023-10-08T14:38:09;30.20;96.70
45115;DHT22;30877;43.706;10.780;2023-10-08T14:40:55;30.20;96.70
45115;DHT22;30877;43.706;10.780;2023-10-08T14:43:42;30.30;96.70
45115;DHT22;30877;43.706;10.780;2023-10-08T14:46:10;30.60;96.70
45115;DHT22;30877;43.706;10.780;2023-10-08T14:48:41;30.60;96.70
45115;DHT22;30877;43.706;10.780;2023-10-08T14:51:12;30.70;96.70
45115;DHT22;30877;43.706;10.780;2023-10-08T14:53:47;30.70;96.70
45115;DHT22;30877;43.706;10.780;2023-10-08T14:56:15;30.80;96.70
45115;DHT22;30877;43.706;10.780;2023-10-08T14:58:46;30.90;96.70
45115;DHT22;30877;43.706;10.780;2023-10-08T15:01:15;31.00;96.70
45115;DHT22;30877;43.706;10.780;2023-10-08T15:03:43;31.00;96.70
45115;DHT22;30877;43.706;10.780;2023-10-08T15:06:15;31.10;96.70
45115;DHT22;30877;43.706;10.780;2023-10-08T15:08:46;31.40;96.70
45115;DHT22;30877;43.706;10.780;2023-10-08T15:11:14;31.10;96.70
45115;DHT22;30877;43.706;10.780;2023-10-08T15:13:43;31.30;96.70
45115;DHT22;30877;43.706;10.780;2023-10-08T15:16:13;31.40;96.70
45115;DHT22;30877;43.706;10.780;2023-10-08T15:18:41;31.40;96.70
45115;DHT22;30877;43.706;10.780;2023-10-08T15:21:10;31.20;96.70
45115;DHT22;30877;43.706;10.780;2023-10-08T15:23:39;31.10;96.70
45115;DHT22;30877;43.706;10.780;2023-10-08T15:26:25;31.00;96.70
45115;DHT22;30877;43.706;10.780;2023-10-08T15:28:54;31.30;96.70
45115;DHT22;30877;43.706;10.780;2023-10-08T15:31:24;31.20;96.70
45115;DHT22;30877;43.706;10.780;2023-10-08T15:33:52;31.30;96.70
45115;DHT22;30877;43.706;10.780;2023-10-08T15:36:21;31.30;96.70
45115;DHT22;30877;43.706;10.780;2023-10-08T15:38:53;31.40;96.70
45115;DHT22;30877;43.706;10.780;2023-10-08T15:41:25;31.20;96.70
45115;DHT22;30877;43.706;10.780;2023-10-08T15:43:56;30.40;96.70
45115;DHT22;30877;43.706;10.780;2023-10-08T15:46:26;29.40;96.70
45115;DHT22;30877;43.706;10.780;2023-10-08T15:48:55;28.90;96.70
45115;DHT22;30877;43.706;10.780;2023-10-08T15:51:23;28.40;96.70
45115;DHT22;30877;43.706;10.780;2023-10-08T15:53:58;28.20;96.70
45115;DHT22;30877;43.706;10.780;2023-10-08T15:56:29;28.00;96.70